createdAt,value
2018-04-07T00:02:02.002Z,85.00
2018-04-07T00:04:29.551Z,84.70
2018-04-07T00:06:57.123Z,84.70
2018-04-07T00:09:24.679Z,84.60
2018-04-07T00:11:52.272Z,84.50
2018-04-07T00:14:19.850Z,84.40
2018-04-07T00:16:48.266Z,84.80
2018-04-07T00:19:15.871Z,84.80
2018-04-07T00:21:43.443Z,85.10
2018-04-07T00:24:11.765Z,85.70
2018-04-07T00:26:39.311Z,85.60
2018-04-07T00:29:06.912Z,86.20
2018-04-07T00:31:34.452Z,86.50
2018-04-07T00:34:01.996Z,86.70
2018-04-07T00:36:29.590Z,87.20
2018-04-07T00:38:57.143Z,87.60
2018-04-07T00:41:24.696Z,88.30
2018-04-07T00:44:05.242Z,88.80
2018-04-07T00:46:32.796Z,89.70
2018-04-07T00:49:00.350Z,90.00
2018-04-07T00:51:27.922Z,90.10
2018-04-07T00:53:55.484Z,90.40
2018-04-07T00:56:23.070Z,90.90
2018-04-07T00:58:50.646Z,91.20
2018-04-07T01:01:18.179Z,91.50
2018-04-07T01:03:45.732Z,92.20
2018-04-07T01:06:13.311Z,92.30
2018-04-07T01:08:40.882Z,92.60
2018-04-07T01:11:08.426Z,92.50
2018-04-07T01:13:36.016Z,92.70
2018-04-07T01:16:04.333Z,92.90
2018-04-07T01:18:31.883Z,92.90
2018-04-07T01:20:59.512Z,93.20
2018-04-07T01:23:27.823Z,93.40
2018-04-07T01:25:55.370Z,93.40
2018-04-07T01:28:22.976Z,93.70
2018-04-07T01:30:50.529Z,93.90
2018-04-07T01:33:18.088Z,94.00
2018-04-07T01:35:45.663Z,94.30
2018-04-07T01:38:13.251Z,94.50
2018-04-07T01:40:41.582Z,94.80
2018-04-07T01:43:09.499Z,94.80
2018-04-07T01:45:37.106Z,95.00
2018-04-07T01:48:04.676Z,95.10
2018-04-07T01:50:32.262Z,95.40
2018-04-07T01:53:00.585Z,95.80
2018-04-07T01:55:28.147Z,95.80
2018-04-07T01:57:55.728Z,96.00
2018-04-07T02:00:24.083Z,96.30
2018-04-07T02:02:51.629Z,96.30
2018-04-07T02:05:19.210Z,96.60
2018-04-07T02:07:46.762Z,97.40
2018-04-07T02:10:14.303Z,97.30
2018-04-07T02:12:41.883Z,97.30
2018-04-07T02:15:09.439Z,97.20
2018-04-07T02:17:36.987Z,97.20
2018-04-07T02:20:04.560Z,97.30
2018-04-07T02:22:32.102Z,97.40
2018-04-07T02:24:59.649Z,97.90
2018-04-07T02:27:27.219Z,98.00
2018-04-07T02:29:54.779Z,98.00
2018-04-07T02:32:22.337Z,98.00
2018-04-07T02:34:49.923Z,98.50
2018-04-07T02:37:17.471Z,98.60
2018-04-07T02:39:45.021Z,98.50
2018-04-07T02:42:12.611Z,98.40
2018-04-07T02:44:40.180Z,98.50
2018-04-07T02:47:07.734Z,98.70
2018-04-07T02:49:35.312Z,98.80
2018-04-07T02:52:02.867Z,98.70
2018-04-07T02:54:30.441Z,98.70
2018-04-07T02:56:58.790Z,98.50
2018-04-07T02:59:26.347Z,98.40
2018-04-07T03:01:53.891Z,98.30
2018-04-07T03:04:21.463Z,98.20
2018-04-07T03:06:49.009Z,98.20
2018-04-07T03:09:16.583Z,98.30
2018-04-07T03:11:44.230Z,98.20
2018-04-07T03:14:11.781Z,98.60
2018-04-07T03:16:39.334Z,98.90
2018-04-07T03:19:06.906Z,98.80
2018-04-07T03:21:34.447Z,98.80
2018-04-07T03:24:08.481Z,99.10
2018-04-07T03:26:36.023Z,99.30
2018-04-07T03:29:03.582Z,99.50
2018-04-07T03:31:31.174Z,99.50
2018-04-07T03:33:58.738Z,99.60
2018-04-07T03:36:26.304Z,99.90
2018-04-07T03:38:53.888Z,99.90
2018-04-07T03:41:22.224Z,99.90
2018-04-07T03:43:49.865Z,99.90
2018-04-07T03:46:17.436Z,99.90
2018-04-07T03:48:44.992Z,99.90
2018-04-07T03:51:12.566Z,99.90
2018-04-07T03:53:40.136Z,99.90
2018-04-07T03:56:07.699Z,99.90
2018-04-07T03:58:35.323Z,99.90
2018-04-07T04:01:02.876Z,99.90
2018-04-07T04:03:30.471Z,99.90
2018-04-07T04:05:58.025Z,99.90
2018-04-07T04:08:25.589Z,99.90
2018-04-07T04:10:53.179Z,99.90
2018-04-07T04:13:21.506Z,99.90
2018-04-07T04:16:11.104Z,99.90
2018-04-07T04:18:38.662Z,99.90
2018-04-07T04:21:07.005Z,99.90
2018-04-07T04:23:34.936Z,99.90
2018-04-07T04:26:03.239Z,99.90
2018-04-07T04:28:30.818Z,99.90
2018-04-07T04:30:58.378Z,99.90
2018-04-07T04:33:50.234Z,99.90
2018-04-07T04:36:17.781Z,99.90
2018-04-07T04:38:45.379Z,99.90
2018-04-07T04:41:13.703Z,99.90
2018-04-07T04:43:41.246Z,99.90
2018-04-07T04:46:08.858Z,99.90
2018-04-07T04:48:36.398Z,99.90
2018-04-07T04:51:03.985Z,99.80
2018-04-07T04:53:31.597Z,99.70
2018-04-07T04:55:59.152Z,99.80
2018-04-07T04:58:26.742Z,99.90
2018-04-07T05:00:54.301Z,99.90
2018-04-07T05:03:32.072Z,99.90
2018-04-07T05:06:00.646Z,99.90
2018-04-07T05:08:28.198Z,99.90
2018-04-07T05:10:55.763Z,99.90
2018-04-07T05:13:23.322Z,99.90
2018-04-07T05:15:50.892Z,99.90
2018-04-07T05:18:18.442Z,99.90
2018-04-07T05:20:45.983Z,99.50
2018-04-07T05:23:13.555Z,99.20
2018-04-07T05:25:41.275Z,99.20
2018-04-07T05:28:21.862Z,99.10
2018-04-07T05:30:58.865Z,98.80
2018-04-07T05:33:26.452Z,98.80
2018-04-07T05:36:03.959Z,98.40
2018-04-07T05:38:31.559Z,98.20
2018-04-07T05:40:59.883Z,97.80
2018-04-07T05:43:28.271Z,97.70
2018-04-07T05:45:55.858Z,97.60
2018-04-07T05:48:45.449Z,97.30
2018-04-07T05:51:14.005Z,96.70
2018-04-07T05:53:41.803Z,96.70
2018-04-07T05:56:09.404Z,96.00
2018-04-07T05:58:36.966Z,95.30
2018-04-07T06:01:04.514Z,94.90
2018-04-07T06:03:32.104Z,94.20
2018-04-07T06:06:12.652Z,94.30
2018-04-07T06:08:44.090Z,94.20
2018-04-07T06:11:11.635Z,93.90
2018-04-07T06:13:56.354Z,93.90
2018-04-07T06:16:23.902Z,94.20
2018-04-07T06:18:51.491Z,93.90
2018-04-07T06:21:19.809Z,93.60
2018-04-07T06:23:47.355Z,93.60
2018-04-07T06:26:14.949Z,93.60
2018-04-07T06:28:42.499Z,93.50
2018-04-07T06:31:10.076Z,93.40
2018-04-07T06:33:37.626Z,93.20
2018-04-07T06:36:11.701Z,92.90
2018-04-07T06:38:39.280Z,92.30
2018-04-07T06:41:07.659Z,91.70
2018-04-07T06:43:35.210Z,91.70
2018-04-07T06:46:02.769Z,91.50
2018-04-07T06:48:30.344Z,92.10
2018-04-07T06:50:57.900Z,91.20
2018-04-07T06:53:25.455Z,91.70
2018-04-07T06:55:53.044Z,91.70
2018-04-07T06:58:23.531Z,91.40
2018-04-07T07:00:51.104Z,90.90
2018-04-07T07:03:18.787Z,90.40
2018-04-07T07:05:46.384Z,90.50
2018-04-07T07:08:13.964Z,90.10
2018-04-07T07:10:41.507Z,90.30
2018-04-07T07:13:09.084Z,90.00
2018-04-07T07:15:36.627Z,90.10
2018-04-07T07:18:04.171Z,89.50
2018-04-07T07:20:32.527Z,88.40
2018-04-07T07:23:00.072Z,88.40
2018-04-07T07:25:27.656Z,86.90
2018-04-07T07:27:55.983Z,85.90
2018-04-07T07:30:23.529Z,85.80
2018-04-07T07:32:51.099Z,84.10
2018-04-07T07:35:18.649Z,85.10
2018-04-07T07:37:46.298Z,84.50
2018-04-07T07:40:13.868Z,83.40
2018-04-07T07:42:41.726Z,84.30
2018-04-07T07:45:09.330Z,83.40
2018-04-07T07:47:36.903Z,82.70
2018-04-07T07:50:04.477Z,80.70
2018-04-07T07:52:32.867Z,81.20
2018-04-07T07:55:01.179Z,79.90
2018-04-07T07:57:28.783Z,79.90
2018-04-07T07:59:56.674Z,80.90
2018-04-07T08:02:24.280Z,82.90
2018-04-07T08:04:52.394Z,79.00
2018-04-07T08:07:24.119Z,80.20
2018-04-07T08:09:51.674Z,80.00
2018-04-07T08:12:19.231Z,80.00
2018-04-07T08:14:59.981Z,79.30
2018-04-07T08:17:27.809Z,78.10
2018-04-07T08:20:04.951Z,77.40
2018-04-07T08:22:32.777Z,77.40
2018-04-07T08:25:06.905Z,77.60
2018-04-07T08:27:34.470Z,76.40
2018-04-07T08:30:09.475Z,75.20
2018-04-07T08:32:37.027Z,77.60
2018-04-07T08:35:05.341Z,76.90
2018-04-07T08:37:32.911Z,76.80
2018-04-07T08:40:00.458Z,74.70
2018-04-07T08:42:28.027Z,73.90
2018-04-07T08:44:55.566Z,75.00
2018-04-07T08:47:23.149Z,74.10
2018-04-07T08:49:50.719Z,75.30
2018-04-07T08:52:18.358Z,72.70
2018-04-07T08:54:45.946Z,73.20
2018-04-07T08:57:13.497Z,76.00
2018-04-07T08:59:41.055Z,73.80
2018-04-07T09:02:09.627Z,72.20
2018-04-07T09:04:37.310Z,71.40
2018-04-07T09:07:04.949Z,70.60
2018-04-07T09:09:32.535Z,70.30
2018-04-07T09:12:00.084Z,70.00
2018-04-07T09:14:27.653Z,70.60
2018-04-07T09:16:56.303Z,71.20
2018-04-07T09:19:25.911Z,68.90
2018-04-07T09:22:03.570Z,71.60
2018-04-07T09:24:45.147Z,67.30
2018-04-07T09:30:06.211Z,68.80
2018-04-07T09:32:33.759Z,66.60
2018-04-07T09:35:01.310Z,67.10
2018-04-07T09:37:29.647Z,68.20
2018-04-07T09:40:01.064Z,68.20
2018-04-07T09:42:28.640Z,68.00
2018-04-07T09:44:56.198Z,67.70
2018-04-07T09:47:23.751Z,65.60
2018-04-07T09:49:51.315Z,64.90
2018-04-07T09:52:18.897Z,64.90
2018-04-07T09:54:46.475Z,63.10
2018-04-07T09:57:14.022Z,63.30
2018-04-07T09:59:41.563Z,65.80
2018-04-07T10:02:22.554Z,61.70
2018-04-07T10:04:52.111Z,60.60
2018-04-07T10:07:19.699Z,65.20
2018-04-07T10:09:53.960Z,62.40
2018-04-07T10:12:22.301Z,63.10
2018-04-07T10:14:49.872Z,63.20
2018-04-07T10:17:17.436Z,62.70
2018-04-07T10:19:45.018Z,60.20
2018-04-07T10:22:16.940Z,59.10
2018-04-07T10:24:47.918Z,59.10
2018-04-07T10:27:17.254Z,61.50
2018-04-07T10:29:44.831Z,61.50
2018-04-07T10:32:12.407Z,59.40
2018-04-07T10:35:03.101Z,58.90
2018-04-07T10:37:31.714Z,58.80
2018-04-07T10:39:59.262Z,62.60
2018-04-07T10:42:26.832Z,62.10
2018-04-07T10:45:14.842Z,63.00
2018-04-07T10:47:42.419Z,57.30
2018-04-07T10:50:09.995Z,60.00
2018-04-07T10:52:38.370Z,57.80
2018-04-07T10:55:05.935Z,57.80
2018-04-07T10:57:34.248Z,56.60
2018-04-07T11:00:01.861Z,56.90
2018-04-07T11:02:30.191Z,56.10
2018-04-07T11:04:57.756Z,56.00
2018-04-07T11:07:25.335Z,56.90
2018-04-07T11:09:52.904Z,55.30
2018-04-07T11:12:20.499Z,57.00
2018-04-07T11:14:49.313Z,59.80
2018-04-07T11:17:16.921Z,59.80
2018-04-07T11:19:44.604Z,56.20
2018-04-07T11:22:13.320Z,54.00
2018-04-07T11:24:40.931Z,53.90
2018-04-07T11:27:08.486Z,52.80
2018-04-07T11:29:39.386Z,54.20
2018-04-07T11:32:07.045Z,52.90
2018-04-07T11:34:34.610Z,55.60
2018-04-07T11:37:02.186Z,58.70
2018-04-07T11:39:29.750Z,52.00
2018-04-07T11:41:57.306Z,55.00
2018-04-07T11:44:24.905Z,55.50
2018-04-07T11:46:53.275Z,52.80
2018-04-07T11:49:21.644Z,50.60
2018-04-07T11:51:49.192Z,50.60
2018-04-07T11:54:16.774Z,50.40
2018-04-07T11:56:45.115Z,48.40
2018-04-07T11:59:12.662Z,48.40
2018-04-07T12:01:54.403Z,47.70
2018-04-07T12:04:22.720Z,49.60
2018-04-07T12:06:50.310Z,49.50
2018-04-07T12:09:17.882Z,49.40
2018-04-07T12:11:45.435Z,49.60
2018-04-07T12:14:13.010Z,47.80
2018-04-07T12:16:50.419Z,48.50
2018-04-07T12:19:18.780Z,44.40
2018-04-07T12:21:59.646Z,44.30
2018-04-07T12:24:27.302Z,47.50
2018-04-07T12:26:55.834Z,48.40
2018-04-07T12:29:23.523Z,50.20
2018-04-07T12:31:57.208Z,47.80
2018-04-07T12:34:24.863Z,43.80
2018-04-07T12:39:47.117Z,44.90
2018-04-07T12:42:14.698Z,46.80
2018-04-07T12:44:42.246Z,46.20
2018-04-07T12:47:09.802Z,45.50
2018-04-07T12:49:37.367Z,45.30
2018-04-07T12:52:04.927Z,44.60
2018-04-07T12:54:32.539Z,44.30
2018-04-07T12:57:00.872Z,42.60
2018-04-07T12:59:28.423Z,42.60
2018-04-07T13:01:56.009Z,44.00
2018-04-07T13:04:23.594Z,46.50
2018-04-07T13:06:51.942Z,38.60
2018-04-07T13:09:19.504Z,38.50
2018-04-07T13:12:06.742Z,40.50
2018-04-07T13:14:34.303Z,41.60
2018-04-07T13:17:01.879Z,43.40
2018-04-07T13:19:30.243Z,39.70
2018-04-07T13:21:58.715Z,39.70
2018-04-07T13:24:26.286Z,41.30
2018-04-07T13:26:54.644Z,37.90
2018-04-07T13:29:22.199Z,37.90
2018-04-07T13:32:09.677Z,36.80
2018-04-07T13:34:37.543Z,39.20
2018-04-07T13:37:05.122Z,38.40
2018-04-07T13:39:33.717Z,39.20
2018-04-07T13:42:01.269Z,35.70
2018-04-07T13:44:28.850Z,35.90
2018-04-07T13:46:56.400Z,40.70
2018-04-07T13:49:24.745Z,38.80
2018-04-07T13:51:53.128Z,36.60
2018-04-07T13:54:20.683Z,36.60
2018-04-07T13:56:48.246Z,37.70
2018-04-07T13:59:15.854Z,37.30
2018-04-07T14:01:43.436Z,35.40
2018-04-07T14:04:16.083Z,37.00
2018-04-07T14:06:43.688Z,37.00
2018-04-07T14:09:21.677Z,33.50
2018-04-07T14:11:50.043Z,34.30
2018-04-07T14:14:17.602Z,34.30
2018-04-07T14:16:45.253Z,34.60
2018-04-07T14:19:31.753Z,34.10
2018-04-07T14:21:59.322Z,35.00
2018-04-07T14:24:26.932Z,33.50
2018-04-07T14:26:54.548Z,33.40
2018-04-07T14:29:22.097Z,35.00
2018-04-07T14:31:49.663Z,35.80
2018-04-07T14:34:17.243Z,35.30
2018-04-07T14:36:45.607Z,37.20
2018-04-07T14:39:13.147Z,37.20
2018-04-07T14:41:50.794Z,35.70
2018-04-07T14:44:18.349Z,34.50
2018-04-07T14:46:49.192Z,34.50
2018-04-07T14:49:23.230Z,37.60
2018-04-07T14:51:50.767Z,35.60
2018-04-07T14:54:18.346Z,32.00
2018-04-07T14:56:45.971Z,35.40
2018-04-07T14:59:13.485Z,34.90
2018-04-07T15:01:41.104Z,35.60
2018-04-07T15:04:08.675Z,38.70
2018-04-07T15:06:37.038Z,36.00
2018-04-07T15:09:04.605Z,36.00
2018-04-07T15:11:32.159Z,35.90
2018-04-07T15:13:59.826Z,37.20
2018-04-07T15:16:27.363Z,36.20
2018-04-07T15:18:55.790Z,34.60
2018-04-07T15:21:23.354Z,34.60
2018-04-07T15:23:51.644Z,35.10
2018-04-07T15:26:19.222Z,34.60
2018-04-07T15:28:47.547Z,35.80
2018-04-07T15:31:15.128Z,35.70
2018-04-07T15:33:42.746Z,33.90
2018-04-07T15:36:10.293Z,34.80
2018-04-07T15:38:38.631Z,36.20
2018-04-07T15:41:06.184Z,36.10
2018-04-07T15:43:33.746Z,36.60
2018-04-07T15:46:02.361Z,37.70
2018-04-07T15:48:33.823Z,38.60
2018-04-07T15:53:55.190Z,36.50
2018-04-07T15:56:22.743Z,38.40
2018-04-07T15:58:50.294Z,36.70
2018-04-07T16:01:17.858Z,38.70
2018-04-07T16:03:48.806Z,38.60
2018-04-07T16:06:16.371Z,38.40
2018-04-07T16:08:43.930Z,37.60
2018-04-07T16:11:11.472Z,38.00
2018-04-07T16:13:39.134Z,38.00
2018-04-07T16:16:06.855Z,37.80
2018-04-07T16:18:35.267Z,38.40
2018-04-07T16:21:02.828Z,38.30
2018-04-07T16:23:30.387Z,38.30
2018-04-07T16:25:57.987Z,39.50
2018-04-07T16:28:25.532Z,40.00
2018-04-07T16:30:53.101Z,41.30
2018-04-07T16:33:21.228Z,39.80
2018-04-07T16:35:48.890Z,40.40
2018-04-07T16:38:17.241Z,41.90
2018-04-07T16:40:46.037Z,41.90
2018-04-07T16:43:13.626Z,43.90
2018-04-07T16:45:41.397Z,42.20
2018-04-07T16:48:08.955Z,44.50
2018-04-07T16:50:36.536Z,43.20
2018-04-07T16:53:04.124Z,43.80
2018-04-07T16:55:31.993Z,44.90
2018-04-07T16:58:00.444Z,45.70
2018-04-07T17:00:28.294Z,45.70
2018-04-07T17:02:56.068Z,44.90
2018-04-07T17:05:23.675Z,45.60
2018-04-07T17:07:51.244Z,47.70
2018-04-07T17:10:19.639Z,49.10
2018-04-07T17:12:47.242Z,49.00
2018-04-07T17:15:14.794Z,50.30
2018-04-07T17:17:42.499Z,49.10
2018-04-07T17:20:21.863Z,50.20
2018-04-07T17:22:51.561Z,50.30
2018-04-07T17:25:20.222Z,53.90
2018-04-07T17:27:50.031Z,53.90
2018-04-07T17:30:21.120Z,52.30
2018-04-07T17:32:48.671Z,50.50
2018-04-07T17:35:16.253Z,52.70
2018-04-07T17:37:43.820Z,50.30
2018-04-07T17:40:11.427Z,50.80
2018-04-07T17:42:39.006Z,50.70
2018-04-07T17:45:07.342Z,49.40
2018-04-07T17:47:34.882Z,49.40
2018-04-07T17:50:06.563Z,48.20
2018-04-07T17:52:34.114Z,48.00
2018-04-07T17:55:01.686Z,47.60
2018-04-07T17:57:41.090Z,48.00
2018-04-07T18:00:26.835Z,47.30
2018-04-07T18:02:55.256Z,49.40
2018-04-07T18:05:22.804Z,49.30
2018-04-07T18:07:50.407Z,49.80
2018-04-07T18:10:17.988Z,53.60
2018-04-07T18:12:46.335Z,55.60
2018-04-07T18:18:11.346Z,54.20
2018-04-07T18:20:57.542Z,54.20
2018-04-07T18:26:28.332Z,54.10
2018-04-07T18:28:56.679Z,53.90
2018-04-07T18:31:24.232Z,53.90
2018-04-07T18:33:51.798Z,53.50
2018-04-07T18:36:20.725Z,53.20
2018-04-07T18:38:48.787Z,53.90
2018-04-07T18:41:33.787Z,54.40
2018-04-07T18:44:02.217Z,54.90
2018-04-07T18:46:30.723Z,53.40
2018-04-07T18:49:02.741Z,52.70
2018-04-07T18:51:34.193Z,52.70
2018-04-07T18:54:04.956Z,52.50
2018-04-07T18:56:32.507Z,52.00
2018-04-07T18:59:00.263Z,51.50
2018-04-07T19:01:28.360Z,51.20
2018-04-07T19:03:56.763Z,50.40
2018-04-07T19:06:25.770Z,51.10
2018-04-07T19:08:53.460Z,51.10
2018-04-07T19:11:27.072Z,51.10
2018-04-07T19:13:55.015Z,51.70
2018-04-07T19:16:25.059Z,50.30
2018-04-07T19:18:52.728Z,50.40
2018-04-07T19:21:20.690Z,50.60
2018-04-07T19:23:51.182Z,51.50
2018-04-07T19:26:19.910Z,51.70
2018-04-07T19:28:47.724Z,51.90
2018-04-07T19:31:15.330Z,51.90
2018-04-07T19:33:43.220Z,52.40
2018-04-07T19:36:11.188Z,53.00
2018-04-07T19:38:39.178Z,53.70
2018-04-07T19:41:09.155Z,55.70
2018-04-07T19:43:37.126Z,57.30
2018-04-07T19:46:04.906Z,57.60
2018-04-07T19:48:34.420Z,56.80
2018-04-07T19:51:02.783Z,57.40
2018-04-07T19:53:31.623Z,57.80
2018-04-07T19:55:59.375Z,57.80
2018-04-07T19:58:32.814Z,58.10
2018-04-07T20:01:00.499Z,59.60
2018-04-07T20:03:34.592Z,59.40
2018-04-07T20:06:03.361Z,58.90
2018-04-07T20:08:30.950Z,58.50
2018-04-07T20:10:58.780Z,57.60
2018-04-07T20:13:26.326Z,57.70
2018-04-07T20:16:12.079Z,57.20
2018-04-07T20:18:59.406Z,56.00
2018-04-07T20:21:27.750Z,56.00
2018-04-07T20:24:01.003Z,56.00
2018-04-07T20:26:28.677Z,55.70
2018-04-07T20:31:49.013Z,55.50
2018-04-07T20:34:17.570Z,55.50
2018-04-07T20:36:45.129Z,56.00
2018-04-07T20:39:12.721Z,56.50
2018-04-07T20:41:40.266Z,57.10
2018-04-07T20:44:07.837Z,57.60
2018-04-07T20:46:35.421Z,57.80
2018-04-07T20:49:03.743Z,59.30
2018-04-07T20:51:31.335Z,59.20
2018-04-07T20:53:58.887Z,59.70
2018-04-07T20:56:27.476Z,60.10
2018-04-07T20:58:55.026Z,61.00
2018-04-07T21:01:22.583Z,61.60
2018-04-07T21:03:50.194Z,61.20
2018-04-07T21:06:18.511Z,60.40
2018-04-07T21:09:06.204Z,60.40
2018-04-07T21:11:33.756Z,60.20
2018-04-07T21:14:02.077Z,60.00
2018-04-07T21:16:29.652Z,60.00
2018-04-07T21:19:02.478Z,60.50
2018-04-07T21:21:30.023Z,60.50
2018-04-07T21:23:58.343Z,61.10
2018-04-07T21:26:25.934Z,61.10
2018-04-07T21:28:53.514Z,61.20
2018-04-07T21:31:21.852Z,62.00
2018-04-07T21:33:49.430Z,62.00
2018-04-07T21:36:17.066Z,62.50
2018-04-07T21:38:44.630Z,62.90
2018-04-07T21:41:12.203Z,63.90
2018-04-07T21:43:39.759Z,63.70
2018-04-07T21:46:07.347Z,64.20
2018-04-07T21:48:34.942Z,65.10
2018-04-07T21:51:03.270Z,65.80
2018-04-07T21:53:30.847Z,65.80
2018-04-07T21:55:58.395Z,66.00
2018-04-07T21:58:26.007Z,66.00
2018-04-07T22:00:53.592Z,65.90
2018-04-07T22:03:21.170Z,65.50
2018-04-07T22:05:48.784Z,65.80
2018-04-07T22:08:16.349Z,66.20
2018-04-07T22:10:43.921Z,66.40
2018-04-07T22:13:11.478Z,66.70
2018-04-07T22:15:39.031Z,67.00
2018-04-07T22:18:06.616Z,68.00
2018-04-07T22:20:34.175Z,68.00
2018-04-07T22:23:01.767Z,68.60
2018-04-07T22:25:37.029Z,69.40
2018-04-07T22:28:04.621Z,69.40
2018-04-07T22:30:32.196Z,70.30
2018-04-07T22:32:59.748Z,69.90
2018-04-07T22:35:27.350Z,69.80
2018-04-07T22:37:55.683Z,69.50
2018-04-07T22:40:23.255Z,69.50
2018-04-07T22:42:50.814Z,69.70
2018-04-07T22:45:18.375Z,70.50
2018-04-07T22:47:45.958Z,71.00
2018-04-07T22:50:13.502Z,72.20
2018-04-07T22:52:41.097Z,73.10
2018-04-07T22:55:09.416Z,73.50
2018-04-07T22:57:56.829Z,73.40
2018-04-07T23:00:24.390Z,74.10
2018-04-07T23:02:51.944Z,75.30
2018-04-07T23:05:19.520Z,76.20
2018-04-07T23:07:47.108Z,77.10
2018-04-07T23:10:24.758Z,78.20
2018-04-07T23:12:52.323Z,78.60
2018-04-07T23:15:19.884Z,79.20
2018-04-07T23:17:47.469Z,79.50
2018-04-07T23:20:15.023Z,79.90
2018-04-07T23:22:42.593Z,80.70
2018-04-07T23:25:10.158Z,81.80
2018-04-07T23:27:37.716Z,81.90
2018-04-07T23:30:05.290Z,82.60
2018-04-07T23:32:32.839Z,83.10
2018-04-07T23:35:03.440Z,84.00
2018-04-07T23:37:30.988Z,86.00
2018-04-07T23:39:58.534Z,86.60
2018-04-07T23:42:26.114Z,87.20
2018-04-07T23:44:53.676Z,87.00
2018-04-07T23:47:21.256Z,87.60
2018-04-07T23:49:48.810Z,88.20
2018-04-07T23:52:16.363Z,88.40
2018-04-07T23:54:43.931Z,89.20
2018-04-07T23:57:11.514Z,89.40
2018-04-07T23:59:39.861Z,90.00
